Virgo Phoenix — 3FMO8 — position and weather

sailwx.info

Track history (hours):
 
Tides and Currents Weather Stations Pressure Air Temp Water Temp Dewpoint Dewpoint Depression Visibility Wind Speed Wind Dir Waves Ship Positions

Virgo Phoenix

Last reported at 2014-Sep-17 12:24 UTC. Time now 2014-Sep-20 18:05 UTC.
Position N 31°04' E 122°03'.

Length 96 m; draft 4.8 m.

Type: Ship (hazmat cat B). MMSI: 370795000.

Date/timePositionNaut miles runAvg speedWind from/ knotsBaromVisibWave heightAir tempDewpointWater temp
2014-Sep-17 12:24N 31°04' E 122°03'2512.4
2014-Sep-17 10:22N 31°20' E 121°40'911.4
2014-Sep-17 09:33N 31°25' E 121°31'6 5.6
2014-Sep-17 08:33N 31°29' E 121°26'1211.8
2014-Sep-17 07:32N 31°37' E 121°16'1514.6
2014-Sep-17 06:29N 31°46' E 121°01'1112.4
2014-Sep-17 05:33N 31°55' E 120°53'1212.0
2014-Sep-17 04:34N 31°60' E 120°40'1110.6
2014-Sep-17 03:33N 31°59' E 120°27'1 0.9
2014-Sep-17 02:31N 31°58' E 120°27'0 0.0
2014-Sep-17 01:19N 31°58' E 120°27'0 0.0
2014-Sep-17 00:31N 31°58' E 120°27'0 0.0
2014-Sep-16 23:31N 31°58' E 120°27'0 0.0
2014-Sep-16 22:31N 31°58' E 120°27'0 0.0
2014-Sep-16 21:31N 31°58' E 120°27'0 0.0
2014-Sep-16 20:31N 31°58' E 120°27'0 0.0
2014-Sep-16 19:31N 31°58' E 120°27'0 0.0
2014-Sep-16 18:31N 31°58' E 120°27'0 0.0
2014-Sep-16 17:31N 31°58' E 120°27'0 0.0
2014-Sep-16 16:31N 31°58' E 120°27'0 0.0
2014-Sep-16 15:31N 31°58' E 120°27'0 0.0
2014-Sep-16 14:31N 31°58' E 120°27'0 0.0
2014-Sep-16 13:31N 31°58' E 120°27'0 0.0
2014-Sep-16 12:31N 31°58' E 120°27'3 3.6
2014-Sep-16 11:33N 32°02' E 120°27'1312.3
2014-Sep-16 10:33N 32°00' E 120°42'1111.1
2014-Sep-16 09:33N 31°55' E 120°53'1311.5
2014-Sep-16 08:24N 31°46' E 121°04'1313.3
2014-Sep-16 07:27N 31°38' E 121°16'1112.6
2014-Sep-16 06:33N 31°30' E 121°26'1010.3
2014-Sep-16 05:32N 31°23' E 121°35'1111.2
2014-Sep-16 04:33N 31°16' E 121°45'  
2014-Sep-11 02:32N 35°58' E 120°33'1514.9
2014-Sep-11 01:32N 36°03' E 120°15'6 0.3
2014-Sep-10 04:33N 36°01' E 120°22'1411.8
2014-Sep-10 03:24N 35°59' E 120°39'  
Track history (hours):
 
Tides and Currents Weather Stations Pressure Air Temp Water Temp Dewpoint Dewpoint Depression Visibility Wind Speed Wind Dir Waves Ship Positions

Virgo Phoenix

Last reported at 2014-Sep-17 12:24 UTC. Time now 2014-Sep-20 18:05 UTC.
Position N 31°04' E 122°03'.

Length 96 m; draft 4.8 m.

Type: Ship (hazmat cat B). MMSI: 370795000.

Date/timePositionNaut miles runAvg speedWind from/ knotsBaromVisibWave heightAir tempDewpointWater temp
2014-Sep-17 12:24N 31°04' E 122°03'2512.4
2014-Sep-17 10:22N 31°20' E 121°40'911.4
2014-Sep-17 09:33N 31°25' E 121°31'6 5.6
2014-Sep-17 08:33N 31°29' E 121°26'1211.8
2014-Sep-17 07:32N 31°37' E 121°16'1514.6
2014-Sep-17 06:29N 31°46' E 121°01'1112.4
2014-Sep-17 05:33N 31°55' E 120°53'1212.0
2014-Sep-17 04:34N 31°60' E 120°40'1110.6
2014-Sep-17 03:33N 31°59' E 120°27'1 0.9
2014-Sep-17 02:31N 31°58' E 120°27'0 0.0
2014-Sep-17 01:19N 31°58' E 120°27'0 0.0
2014-Sep-17 00:31N 31°58' E 120°27'0 0.0
2014-Sep-16 23:31N 31°58' E 120°27'0 0.0
2014-Sep-16 22:31N 31°58' E 120°27'0 0.0
2014-Sep-16 21:31N 31°58' E 120°27'0 0.0
2014-Sep-16 20:31N 31°58' E 120°27'0 0.0
2014-Sep-16 19:31N 31°58' E 120°27'0 0.0
2014-Sep-16 18:31N 31°58' E 120°27'0 0.0
2014-Sep-16 17:31N 31°58' E 120°27'0 0.0
2014-Sep-16 16:31N 31°58' E 120°27'0 0.0
2014-Sep-16 15:31N 31°58' E 120°27'0 0.0
2014-Sep-16 14:31N 31°58' E 120°27'0 0.0
2014-Sep-16 13:31N 31°58' E 120°27'0 0.0
2014-Sep-16 12:31N 31°58' E 120°27'3 3.6
2014-Sep-16 11:33N 32°02' E 120°27'1312.3
2014-Sep-16 10:33N 32°00' E 120°42'1111.1
2014-Sep-16 09:33N 31°55' E 120°53'1311.5
2014-Sep-16 08:24N 31°46' E 121°04'1313.3
2014-Sep-16 07:27N 31°38' E 121°16'1112.6
2014-Sep-16 06:33N 31°30' E 121°26'1010.3
2014-Sep-16 05:32N 31°23' E 121°35'1111.2
2014-Sep-16 04:33N 31°16' E 121°45'  
2014-Sep-11 02:32N 35°58' E 120°33'1514.9
2014-Sep-11 01:32N 36°03' E 120°15'6 0.3
2014-Sep-10 04:33N 36°01' E 120°22'1411.8
2014-Sep-10 03:24N 35°59' E 120°39'  

Dump ship's entire track history